createdAt,value
2022-09-06T00:01:54.824Z,97.80
2022-09-06T00:04:25.229Z,97.60
2022-09-06T00:06:55.666Z,97.60
2022-09-06T00:09:26.203Z,97.60
2022-09-06T00:11:57.653Z,97.70
2022-09-06T00:14:28.883Z,97.60
2022-09-06T00:16:59.591Z,97.70
2022-09-06T00:19:29.894Z,97.80
2022-09-06T00:22:00.201Z,97.70
2022-09-06T00:24:31.078Z,97.60
2022-09-06T00:27:01.337Z,97.50
2022-09-06T00:29:31.853Z,97.50
2022-09-06T00:32:02.522Z,97.60
2022-09-06T00:34:33.061Z,97.60
2022-09-06T00:37:03.380Z,97.30
2022-09-06T00:39:33.759Z,97.20
2022-09-06T00:42:04.018Z,97.20
2022-09-06T00:44:37.859Z,97.10
2022-09-06T00:47:09.076Z,97.10
2022-09-06T00:49:45.742Z,96.80
2022-09-06T00:52:19.356Z,96.80
2022-09-06T00:54:51.010Z,96.60
2022-09-06T00:57:21.662Z,96.70
2022-09-06T00:59:52.885Z,96.60
2022-09-06T01:02:23.951Z,96.60
2022-09-06T01:04:55.051Z,96.60
2022-09-06T01:07:44.970Z,96.20
2022-09-06T01:10:26.544Z,96.30
2022-09-06T01:13:29.029Z,96.20
2022-09-06T01:16:24.444Z,96.10
2022-09-06T01:19:25.528Z,96.20
2022-09-06T01:22:21.978Z,96.50
2022-09-06T01:25:21.013Z,96.50
2022-09-06T01:28:27.392Z,96.30
2022-09-06T01:31:13.034Z,96.10
2022-09-06T01:34:17.515Z,96.00
2022-09-06T01:37:10.277Z,96.20
2022-09-06T01:39:42.581Z,96.10
2022-09-06T01:42:22.650Z,96.50
2022-09-06T01:45:00.612Z,96.70
2022-09-06T01:48:00.964Z,96.50
2022-09-06T01:50:56.174Z,96.50
2022-09-06T01:53:49.367Z,96.60
2022-09-06T01:56:52.915Z,96.90
2022-09-06T01:59:48.287Z,97.10
2022-09-06T02:02:43.741Z,96.90
2022-09-06T02:05:44.838Z,97.00
2022-09-06T02:08:28.187Z,96.80
2022-09-06T02:11:06.118Z,96.60
2022-09-06T02:13:42.130Z,96.80
2022-09-06T02:16:15.194Z,96.80
2022-09-06T02:19:01.042Z,96.70
2022-09-06T02:21:36.658Z,96.70
2022-09-06T02:24:11.354Z,96.30
2022-09-06T02:26:46.177Z,96.00
2022-09-06T02:29:18.244Z,95.70
2022-09-06T02:31:53.602Z,95.90
2022-09-06T02:34:24.845Z,95.20
2022-09-06T02:36:55.342Z,95.10
2022-09-06T02:39:26.941Z,95.10
2022-09-06T02:41:57.603Z,95.20
2022-09-06T02:44:28.168Z,95.30
2022-09-06T02:46:58.476Z,94.60
2022-09-06T02:49:28.766Z,93.80
2022-09-06T02:51:59.453Z,93.80
2022-09-06T02:54:30.015Z,93.30
2022-09-06T02:57:00.429Z,93.50
2022-09-06T02:59:30.875Z,93.50
2022-09-06T03:02:02.134Z,93.20
2022-09-06T03:04:32.718Z,93.50
2022-09-06T03:07:03.106Z,93.60
2022-09-06T03:09:34.084Z,93.30
2022-09-06T03:12:04.534Z,94.00
2022-09-06T03:14:34.911Z,94.50
2022-09-06T03:17:06.690Z,94.50
2022-09-06T03:19:37.213Z,94.20
2022-09-06T03:22:07.538Z,94.60
2022-09-06T03:24:37.891Z,94.60
2022-09-06T03:27:08.203Z,94.20
2022-09-06T03:29:38.676Z,93.80
2022-09-06T03:32:08.983Z,93.90
2022-09-06T03:34:39.279Z,93.80
2022-09-06T03:37:10.045Z,92.60
2022-09-06T03:39:40.399Z,92.70
2022-09-06T03:42:11.000Z,92.40
2022-09-06T03:44:41.388Z,92.30
2022-09-06T03:47:11.843Z,92.30
2022-09-06T03:49:42.149Z,92.90
2022-09-06T03:52:12.487Z,92.90
2022-09-06T03:54:43.720Z,93.00
2022-09-06T03:57:14.051Z,92.80
2022-09-06T03:59:45.107Z,91.70
2022-09-06T04:02:15.729Z,91.90
2022-09-06T04:04:46.509Z,91.50
2022-09-06T04:07:16.974Z,91.20
2022-09-06T04:09:47.416Z,91.10
2022-09-06T04:12:17.837Z,90.90
2022-09-06T04:14:48.258Z,91.10
2022-09-06T04:17:18.591Z,91.10
2022-09-06T04:19:49.490Z,91.00
2022-09-06T04:22:19.770Z,91.10
2022-09-06T04:24:50.707Z,91.70
2022-09-06T04:27:21.143Z,91.50
2022-09-06T04:29:51.706Z,91.20
2022-09-06T04:32:22.061Z,90.40
2022-09-06T04:34:52.605Z,90.50
2022-09-06T04:37:23.015Z,89.20
2022-09-06T04:39:53.723Z,89.50
2022-09-06T04:42:24.137Z,90.30
2022-09-06T04:44:54.590Z,90.40
2022-09-06T04:47:25.728Z,89.50
2022-09-06T04:50:00.200Z,90.10
2022-09-06T04:52:31.189Z,90.00
2022-09-06T04:55:01.751Z,90.50
2022-09-06T04:57:32.046Z,90.10
2022-09-06T05:00:02.583Z,90.10
2022-09-06T05:02:33.153Z,90.00
2022-09-06T05:05:04.651Z,90.00
2022-09-06T05:07:35.163Z,89.50
2022-09-06T05:10:06.266Z,88.20
2022-09-06T05:12:39.829Z,89.90
2022-09-06T05:15:14.446Z,87.60
2022-09-06T05:17:45.169Z,88.10
2022-09-06T05:20:16.390Z,89.20
2022-09-06T05:22:54.331Z,88.20
2022-09-06T05:25:24.930Z,86.50
2022-09-06T05:27:55.650Z,88.30
2022-09-06T05:30:26.533Z,89.70
2022-09-06T05:33:00.544Z,89.60
2022-09-06T05:35:31.306Z,89.30
2022-09-06T05:38:02.089Z,87.90
2022-09-06T05:40:35.088Z,90.00
2022-09-06T05:43:05.485Z,89.30
2022-09-06T05:45:36.519Z,88.30
2022-09-06T05:48:07.003Z,88.60
2022-09-06T05:50:37.605Z,88.70
2022-09-06T05:53:07.917Z,88.90
2022-09-06T05:55:42.309Z,87.70
2022-09-06T05:58:13.629Z,88.00
2022-09-06T06:00:44.741Z,87.50
2022-09-06T06:03:15.666Z,89.50
2022-09-06T06:05:50.751Z,90.00
2022-09-06T06:08:21.353Z,90.20
2022-09-06T06:29:19.491Z,90.40
2022-09-06T06:31:51.165Z,90.80
2022-09-06T06:34:24.032Z,90.00
2022-09-06T06:36:54.852Z,88.10
2022-09-06T06:39:25.662Z,87.50
2022-09-06T06:41:56.652Z,86.00
2022-09-06T06:44:31.066Z,85.70
2022-09-06T06:47:04.129Z,85.70
2022-09-06T06:49:34.833Z,84.60
2022-09-06T06:52:05.221Z,86.00
2022-09-06T06:54:35.676Z,86.50
2022-09-06T06:57:06.608Z,85.10
2022-09-06T06:59:37.219Z,84.50
2022-09-06T07:02:08.042Z,84.70
2022-09-06T07:04:38.614Z,84.30
2022-09-06T07:12:51.152Z,83.10
2022-09-06T07:15:22.160Z,82.70
2022-09-06T07:17:52.448Z,83.70
2022-09-06T07:20:23.716Z,84.10
2022-09-06T07:25:59.647Z,83.10
2022-09-06T07:28:30.007Z,83.70
2022-09-06T07:31:01.023Z,82.20
2022-09-06T07:33:32.443Z,81.60
2022-09-06T07:36:04.925Z,82.70
2022-09-06T07:38:36.936Z,81.50
2022-09-06T07:41:10.838Z,83.40
2022-09-06T07:43:41.354Z,84.20
2022-09-06T07:46:47.521Z,85.40
2022-09-06T07:49:18.094Z,84.70
2022-09-06T07:51:48.533Z,84.70
2022-09-06T07:54:39.019Z,84.50
2022-09-06T07:57:10.683Z,85.30
2022-09-06T07:59:48.562Z,84.50
2022-09-06T08:02:20.057Z,86.40
2022-09-06T08:04:53.972Z,84.60
2022-09-06T08:07:39.751Z,84.70
2022-09-06T08:10:12.010Z,83.80
2022-09-06T08:12:42.872Z,84.90
2022-09-06T08:15:13.649Z,85.60
2022-09-06T08:17:43.833Z,85.40
2022-09-06T08:20:14.843Z,86.00
2022-09-06T08:22:45.266Z,87.10
2022-09-06T08:25:19.425Z,87.60
2022-09-06T08:27:49.734Z,88.40
2022-09-06T08:30:20.325Z,88.30
2022-09-06T08:32:50.941Z,89.20
2022-09-06T08:35:21.459Z,89.80
2022-09-06T08:37:51.828Z,89.50
2022-09-06T08:40:27.379Z,89.50
2022-09-06T08:42:58.608Z,90.00
2022-09-06T08:45:30.666Z,89.00
2022-09-06T08:48:01.396Z,90.10
2022-09-06T08:50:32.230Z,90.40
2022-09-06T08:53:20.072Z,89.60
2022-09-06T08:56:15.663Z,90.20
2022-09-06T08:59:09.377Z,90.00
2022-09-06T09:02:06.886Z,90.10
2022-09-06T09:04:39.465Z,90.40
2022-09-06T09:07:37.298Z,90.00
2022-09-06T09:10:14.900Z,89.40
2022-09-06T09:12:49.864Z,89.40
2022-09-06T09:15:22.717Z,89.50
2022-09-06T09:17:55.173Z,90.60
2022-09-06T09:20:27.014Z,90.80
2022-09-06T09:22:59.100Z,90.20
2022-09-06T09:25:29.595Z,90.40
2022-09-06T09:28:00.484Z,90.20
2022-09-06T09:30:51.568Z,89.80
2022-09-06T09:33:41.367Z,90.30
2022-09-06T09:36:16.081Z,89.50
2022-09-06T09:38:51.440Z,89.00
2022-09-06T09:41:35.503Z,89.30
2022-09-06T09:44:10.607Z,88.00
2022-09-06T09:51:08.981Z,90.00
2022-09-06T09:53:55.099Z,89.50
2022-09-06T09:56:32.351Z,90.00
2022-09-06T09:59:03.877Z,90.80
2022-09-06T10:01:35.894Z,90.40
2022-09-06T10:07:22.751Z,90.90
2022-09-06T10:10:10.025Z,90.40
2022-09-06T10:12:42.431Z,90.10
2022-09-06T10:15:15.060Z,90.50
2022-09-06T10:17:57.631Z,90.20
2022-09-06T10:20:40.894Z,90.10
2022-09-06T10:30:11.345Z,90.10
2022-09-06T10:40:52.541Z,90.50
2022-09-06T10:43:23.874Z,90.60
2022-09-06T10:46:08.346Z,90.60
2022-09-06T10:48:47.497Z,90.60
2022-09-06T10:51:40.220Z,90.70
2022-09-06T10:54:14.109Z,91.00
2022-09-06T10:56:51.823Z,91.20
2022-09-06T11:02:20.592Z,92.10
2022-09-06T11:10:50.591Z,93.00
2022-09-06T11:13:23.092Z,93.30
2022-09-06T11:16:04.883Z,94.00
2022-09-06T11:18:54.716Z,94.70
2022-09-06T11:21:58.459Z,95.10
2022-09-06T11:24:56.262Z,95.10
2022-09-06T11:27:43.713Z,95.40
2022-09-06T11:30:19.369Z,94.80
2022-09-06T11:32:52.976Z,94.90
2022-09-06T11:35:32.260Z,95.70
2022-09-06T11:38:31.265Z,95.90
2022-09-06T11:41:10.402Z,96.20
2022-09-06T11:43:53.805Z,96.30
2022-09-06T11:46:55.251Z,95.60
2022-09-06T11:49:35.042Z,95.70
2022-09-06T11:52:05.652Z,96.10
2022-09-06T11:54:47.375Z,96.10
2022-09-06T11:57:24.414Z,96.00
2022-09-06T12:00:04.307Z,96.40
2022-09-06T12:02:43.169Z,96.30
2022-09-06T12:05:19.554Z,96.60
2022-09-06T12:08:27.418Z,96.50
2022-09-06T12:11:06.580Z,96.60
2022-09-06T12:13:45.479Z,96.40
2022-09-06T12:16:17.269Z,96.80
2022-09-06T12:18:58.331Z,96.80
2022-09-06T12:21:55.861Z,96.80
2022-09-06T12:25:01.768Z,97.00
2022-09-06T12:27:35.937Z,97.20
2022-09-06T12:30:11.818Z,97.50
2022-09-06T12:32:50.791Z,97.40
2022-09-06T12:38:19.276Z,97.00
2022-09-06T12:40:53.743Z,96.90
2022-09-06T12:43:24.891Z,97.60
2022-09-06T12:45:55.872Z,97.30
2022-09-06T12:48:33.473Z,97.00
2022-09-06T12:51:10.229Z,97.00
2022-09-06T12:53:41.657Z,97.10
2022-09-06T12:56:15.065Z,96.80
2022-09-06T12:58:46.212Z,96.60
2022-09-06T13:01:25.942Z,96.70
2022-09-06T13:04:00.587Z,96.80
2022-09-06T13:06:32.467Z,96.90
2022-09-06T13:09:03.939Z,97.70
2022-09-06T13:11:40.555Z,97.30
2022-09-06T13:14:24.080Z,98.00
2022-09-06T13:16:59.214Z,97.50
2022-09-06T13:19:43.116Z,98.00
2022-09-06T13:22:14.154Z,98.20
2022-09-06T13:24:49.390Z,98.20
2022-09-06T13:27:39.091Z,98.40
2022-09-06T13:30:12.885Z,97.70
2022-09-06T13:32:50.584Z,98.20
2022-09-06T13:35:40.608Z,97.70
2022-09-06T13:38:37.078Z,97.40
2022-09-06T13:41:12.774Z,97.50
2022-09-06T13:43:48.034Z,98.00
2022-09-06T13:46:18.507Z,98.20
2022-09-06T13:48:48.755Z,97.50
2022-09-06T13:51:20.432Z,96.70
2022-09-06T13:53:51.070Z,97.40
2022-09-06T13:56:21.498Z,96.00
2022-09-06T13:58:51.787Z,95.90
2022-09-06T14:01:22.511Z,95.80
2022-09-06T14:03:54.336Z,96.30
2022-09-06T14:06:25.070Z,96.30
2022-09-06T14:09:07.002Z,96.50
2022-09-06T14:11:38.779Z,97.10
2022-09-06T14:14:09.366Z,96.90
2022-09-06T14:16:40.289Z,97.00
2022-09-06T14:19:10.631Z,96.60
2022-09-06T14:21:41.300Z,97.30
2022-09-06T14:24:12.354Z,97.40
2022-09-06T14:26:42.873Z,97.40
2022-09-06T14:29:13.885Z,97.20
2022-09-06T14:31:44.335Z,97.70
2022-09-06T14:34:14.733Z,97.50
2022-09-06T14:36:45.181Z,97.90
2022-09-06T14:39:15.564Z,98.40
2022-09-06T14:41:46.916Z,98.60
2022-09-06T14:44:17.381Z,98.10
2022-09-06T14:46:49.892Z,98.20
2022-09-06T14:49:20.595Z,97.80
2022-09-06T14:51:51.982Z,97.70
2022-09-06T14:54:26.090Z,98.40
2022-09-06T14:56:59.897Z,97.90
2022-09-06T14:59:30.297Z,98.30
2022-09-06T15:02:00.907Z,98.50
2022-09-06T15:04:31.978Z,98.60
2022-09-06T15:07:02.949Z,97.90
2022-09-06T15:09:33.403Z,97.50
2022-09-06T15:12:03.788Z,97.40
2022-09-06T15:14:34.745Z,97.50
2022-09-06T15:17:07.872Z,97.90
2022-09-06T15:19:40.185Z,98.30
2022-09-06T15:22:10.754Z,98.60
2022-09-06T15:24:42.226Z,98.00
2022-09-06T15:27:12.549Z,98.10
2022-09-06T15:29:43.389Z,98.30
2022-09-06T15:32:13.790Z,98.40
2022-09-06T15:34:44.726Z,97.90
2022-09-06T15:37:15.080Z,98.00
2022-09-06T15:39:45.474Z,97.90
2022-09-06T15:42:16.034Z,98.10
2022-09-06T15:44:46.389Z,98.60
2022-09-06T15:47:16.931Z,98.70
2022-09-06T15:49:47.333Z,99.00
2022-09-06T15:52:17.789Z,99.20
2022-09-06T15:55:02.216Z,99.00
2022-09-06T15:57:32.793Z,98.90
2022-09-06T16:00:03.308Z,98.90
2022-09-06T16:02:33.713Z,98.60
2022-09-06T16:05:04.480Z,98.10
2022-09-06T16:07:35.291Z,97.90
2022-09-06T16:10:06.574Z,98.00
2022-09-06T16:12:36.891Z,97.90
2022-09-06T16:15:07.798Z,97.90
2022-09-06T16:17:38.638Z,98.40
2022-09-06T16:20:09.757Z,98.40
2022-09-06T16:22:40.885Z,98.70
2022-09-06T16:25:11.807Z,98.00
2022-09-06T16:27:42.250Z,98.90
2022-09-06T16:30:13.044Z,99.30
2022-09-06T16:32:43.966Z,99.40
2022-09-06T16:35:14.331Z,99.70
2022-09-06T16:37:44.670Z,99.70
2022-09-06T16:40:15.360Z,99.50
2022-09-06T16:42:46.764Z,99.60
2022-09-06T16:45:17.112Z,99.70
2022-09-06T16:47:49.257Z,99.70
2022-09-06T16:50:20.141Z,99.60
2022-09-06T16:52:52.392Z,99.40
2022-09-06T16:55:22.730Z,99.90
2022-09-06T16:57:52.989Z,99.80
2022-09-06T17:00:23.450Z,99.50
2022-09-06T17:02:53.877Z,99.50
2022-09-06T17:05:24.491Z,99.50
2022-09-06T17:07:54.848Z,99.00
2022-09-06T17:10:25.309Z,99.30
2022-09-06T17:12:56.112Z,99.40
2022-09-06T17:15:26.895Z,99.10
2022-09-06T17:17:57.222Z,98.90
2022-09-06T17:20:27.502Z,99.00
2022-09-06T17:22:57.842Z,99.00
2022-09-06T17:25:29.123Z,98.60
2022-09-06T17:28:00.081Z,98.60
2022-09-06T17:30:31.802Z,98.50
2022-09-06T17:33:02.235Z,98.40
2022-09-06T17:35:34.123Z,98.50
2022-09-06T17:38:04.559Z,98.20
2022-09-06T17:40:34.880Z,98.30
2022-09-06T17:43:07.201Z,98.80
2022-09-06T17:45:45.011Z,98.90
2022-09-06T17:48:15.374Z,99.00
2022-09-06T17:50:46.414Z,98.90
2022-09-06T17:53:17.709Z,99.10
2022-09-06T17:55:48.061Z,98.80
2022-09-06T17:58:18.384Z,98.80
2022-09-06T18:00:48.816Z,98.70
2022-09-06T18:03:19.443Z,98.50
2022-09-06T18:05:49.868Z,98.80
2022-09-06T18:08:20.198Z,98.90
2022-09-06T18:10:50.638Z,98.80
2022-09-06T18:13:20.886Z,98.50
2022-09-06T18:15:52.567Z,98.90
2022-09-06T18:18:23.101Z,99.10
2022-09-06T18:21:28.994Z,99.50
2022-09-06T18:24:00.304Z,98.80
2022-09-06T18:26:30.925Z,98.90
2022-09-06T18:29:01.495Z,98.70
2022-09-06T18:31:31.943Z,98.70
2022-09-06T18:34:03.233Z,98.90
2022-09-06T18:36:33.986Z,98.80
2022-09-06T18:39:06.880Z,98.80
2022-09-06T18:41:51.095Z,98.40
2022-09-06T18:44:21.503Z,98.50
2022-09-06T18:46:52.511Z,98.70
2022-09-06T18:49:22.872Z,99.30
2022-09-06T18:51:53.444Z,99.70
2022-09-06T18:54:24.059Z,99.70
2022-09-06T18:56:54.370Z,99.60
2022-09-06T18:59:26.207Z,99.50
2022-09-06T19:01:56.756Z,99.60
2022-09-06T19:04:27.414Z,99.70
2022-09-06T19:06:57.730Z,99.80
2022-09-06T19:09:27.998Z,99.80
2022-09-06T19:11:58.468Z,99.70
2022-09-06T19:14:29.834Z,99.40
2022-09-06T19:17:00.289Z,99.40
2022-09-06T19:19:30.871Z,99.20
2022-09-06T19:22:01.359Z,99.60
2022-09-06T19:24:31.727Z,99.90
2022-09-06T19:27:02.439Z,99.90
2022-09-06T19:29:34.018Z,99.90
2022-09-06T19:32:05.101Z,99.90
2022-09-06T19:34:36.139Z,99.90
2022-09-06T19:37:06.637Z,99.90
2022-09-06T19:39:37.421Z,99.90
2022-09-06T19:42:08.641Z,99.90
2022-09-06T19:44:39.283Z,99.90
2022-09-06T19:47:09.847Z,99.90
2022-09-06T19:49:40.422Z,99.90
2022-09-06T19:52:12.175Z,99.90
2022-09-06T19:54:42.905Z,99.90
2022-09-06T19:57:13.310Z,99.90
2022-09-06T19:59:43.603Z,99.90
2022-09-06T20:02:13.919Z,99.90
2022-09-06T20:04:44.253Z,99.90
2022-09-06T20:07:14.520Z,99.90
2022-09-06T20:09:47.510Z,99.90
2022-09-06T20:12:19.720Z,99.90
2022-09-06T20:14:50.120Z,99.90
2022-09-06T20:17:33.314Z,99.90
2022-09-06T20:20:04.964Z,99.90
2022-09-06T20:22:35.306Z,99.90
2022-09-06T20:25:05.713Z,99.90
2022-09-06T20:27:35.995Z,99.90
2022-09-06T20:30:06.586Z,99.90
2022-09-06T20:32:36.981Z,99.90
2022-09-06T20:35:07.659Z,99.90
2022-09-06T20:37:40.634Z,99.90
2022-09-06T20:40:11.952Z,99.90
2022-09-06T20:42:44.300Z,99.90
2022-09-06T20:45:15.541Z,99.90
2022-09-06T20:47:45.888Z,99.90
2022-09-06T20:50:16.318Z,99.90
2022-09-06T20:52:46.652Z,99.90
2022-09-06T20:55:17.631Z,99.90
2022-09-06T20:57:50.365Z,99.90
2022-09-06T21:00:20.706Z,99.90
2022-09-06T21:02:50.960Z,99.90
2022-09-06T21:05:21.535Z,99.90
2022-09-06T21:07:51.827Z,99.90
2022-09-06T21:10:22.067Z,99.90
2022-09-06T21:12:52.584Z,99.90
2022-09-06T21:15:22.850Z,99.90
2022-09-06T21:17:53.079Z,99.90
2022-09-06T21:20:23.661Z,99.90
2022-09-06T21:22:53.991Z,99.90
2022-09-06T21:25:24.369Z,99.90
2022-09-06T21:27:55.930Z,99.90
2022-09-06T21:30:27.153Z,99.90
2022-09-06T21:32:57.600Z,99.90
2022-09-06T21:35:27.954Z,99.90
2022-09-06T21:37:58.105Z,99.90
2022-09-06T21:40:28.380Z,99.90
2022-09-06T21:42:58.614Z,99.90
2022-09-06T21:45:28.879Z,99.90
2022-09-06T21:47:59.141Z,99.90
2022-09-06T21:50:29.350Z,99.90
2022-09-06T21:52:59.582Z,99.90
2022-09-06T21:55:30.480Z,99.90
2022-09-06T21:58:00.835Z,99.90
2022-09-06T22:00:31.158Z,99.90
2022-09-06T22:03:01.458Z,99.90
2022-09-06T22:05:31.898Z,99.90
2022-09-06T22:08:02.307Z,99.90
2022-09-06T22:10:32.564Z,99.90
2022-09-06T22:13:02.762Z,99.90
2022-09-06T22:15:33.994Z,99.90
2022-09-06T22:18:04.296Z,99.90
2022-09-06T22:20:34.590Z,99.90
2022-09-06T22:23:10.863Z,99.90
2022-09-06T22:26:01.437Z,99.90
2022-09-06T22:28:31.885Z,99.90
2022-09-06T22:31:02.382Z,99.90
2022-09-06T22:33:32.730Z,99.90
2022-09-06T22:38:52.577Z,99.90
2022-09-06T22:41:22.765Z,99.90
2022-09-06T22:43:53.184Z,99.90
2022-09-06T22:46:24.906Z,99.90
2022-09-06T22:48:55.315Z,99.90
2022-09-06T22:51:25.593Z,99.90
2022-09-06T22:53:55.892Z,99.90
2022-09-06T22:56:26.606Z,99.90
2022-09-06T22:58:56.924Z,99.90
2022-09-06T23:01:27.283Z,99.90
2022-09-06T23:03:57.810Z,99.90
2022-09-06T23:06:30.971Z,99.90
2022-09-06T23:09:02.122Z,99.90
2022-09-06T23:11:34.735Z,99.90
2022-09-06T23:14:07.119Z,99.90
2022-09-06T23:16:37.744Z,99.90
2022-09-06T23:19:08.768Z,99.90
2022-09-06T23:21:39.015Z,99.90
2022-09-06T23:24:09.328Z,99.90
2022-09-06T23:26:40.142Z,99.90
2022-09-06T23:29:10.749Z,99.90
2022-09-06T23:31:41.356Z,99.90
2022-09-06T23:34:11.572Z,99.90
2022-09-06T23:36:42.541Z,99.90
2022-09-06T23:39:13.570Z,99.90
2022-09-06T23:41:43.806Z,99.90
2022-09-06T23:44:13.991Z,99.90
2022-09-06T23:46:44.478Z,99.90
2022-09-06T23:49:14.767Z,99.90
2022-09-06T23:51:45.642Z,99.90
2022-09-06T23:54:16.039Z,99.90
2022-09-06T23:56:46.243Z,99.90
2022-09-06T23:59:16.577Z,99.90
